sensor_id;sensor_type;location;lat;lon;timestamp;pressure;altitude;pressure_sealevel;temperature;humidity
71716;BME280;59568;52.128;5.434;2023-11-21T00:02:21;101220.78;;;5.34;100.00
71716;BME280;59568;52.128;5.434;2023-11-21T00:04:49;101224.66;;;5.31;100.00
71716;BME280;59568;52.128;5.434;2023-11-21T00:07:16;101237.06;;;5.29;100.00
71716;BME280;59568;52.128;5.434;2023-11-21T00:09:43;101233.38;;;5.25;100.00
71716;BME280;59568;52.128;5.434;2023-11-21T00:12:10;101235.41;;;5.23;100.00
71716;BME280;59568;52.128;5.434;2023-11-21T00:14:37;101230.50;;;5.22;100.00
71716;BME280;59568;52.128;5.434;2023-11-21T00:17:06;101233.63;;;5.24;100.00
71716;BME280;59568;52.128;5.434;2023-11-21T00:19:33;101237.22;;;5.23;100.00
71716;BME280;59568;52.128;5.434;2023-11-21T00:22:01;101233.63;;;5.24;100.00
71716;BME280;59568;52.128;5.434;2023-11-21T00:24:28;101240.84;;;5.22;100.00
71716;BME280;59568;52.128;5.434;2023-11-21T00:26:55;101242.63;;;5.21;100.00
71716;BME280;59568;52.128;5.434;2023-11-21T00:29:22;101240.03;;;5.21;100.00
71716;BME280;59568;52.128;5.434;2023-11-21T00:31:49;101248.84;;;5.20;100.00
71716;BME280;59568;52.128;5.434;2023-11-21T00:34:16;101254.03;;;5.20;100.00
71716;BME280;59568;52.128;5.434;2023-11-21T00:36:43;101246.03;;;5.22;100.00
71716;BME280;59568;52.128;5.434;2023-11-21T00:39:10;101240.84;;;5.22;100.00
71716;BME280;59568;52.128;5.434;2023-11-21T00:41:38;101243.44;;;5.22;100.00
71716;BME280;59568;52.128;5.434;2023-11-21T00:44:05;101250.41;;;5.21;100.00
71716;BME280;59568;52.128;5.434;2023-11-21T00:46:33;101252.22;;;5.20;100.00
71716;BME280;59568;52.128;5.434;2023-11-21T00:49:00;101245.72;;;5.18;100.00
71716;BME280;59568;52.128;5.434;2023-11-21T00:51:27;101248.31;;;5.18;100.00
71716;BME280;59568;52.128;5.434;2023-11-21T00:53:54;101253.72;;;5.16;100.00
71716;BME280;59568;52.128;5.434;2023-11-21T00:56:21;101253.97;;;5.15;100.00
71716;BME280;59568;52.128;5.434;2023-11-21T00:58:49;101260.94;;;5.14;100.00
71716;BME280;59568;52.128;5.434;2023-11-21T01:01:20;101266.13;;;5.14;100.00
71716;BME280;59568;52.128;5.434;2023-11-21T01:03:51;101261.44;;;5.11;100.00
71716;BME280;59568;52.128;5.434;2023-11-21T01:06:18;101263.78;;;5.13;100.00
71716;BME280;59568;52.128;5.434;2023-11-21T01:08:46;101279.84;;;5.15;100.00
71716;BME280;59568;52.128;5.434;2023-11-21T01:11:13;101273.91;;;5.14;100.00
71716;BME280;59568;52.128;5.434;2023-11-21T01:13:40;101283.25;;;5.15;100.00
71716;BME280;59568;52.128;5.434;2023-11-21T01:16:08;101282.22;;;5.16;100.00
71716;BME280;59568;52.128;5.434;2023-11-21T01:18:35;101282.75;;;5.18;100.00
71716;BME280;59568;52.128;5.434;2023-11-21T01:21:02;101289.53;;;5.19;100.00
71716;BME280;59568;52.128;5.434;2023-11-21T01:23:29;101292.34;;;5.18;100.00
71716;BME280;59568;52.128;5.434;2023-11-21T01:25:57;101283.53;;;5.19;100.00
71716;BME280;59568;52.128;5.434;2023-11-21T01:28:24;101275.00;;;5.18;100.00
71716;BME280;59568;52.128;5.434;2023-11-21T01:30:51;101270.34;;;5.20;100.00
71716;BME280;59568;52.128;5.434;2023-11-21T01:33:18;101272.94;;;5.20;100.00
71716;BME280;59568;52.128;5.434;2023-11-21T01:35:45;101285.91;;;5.20;100.00
71716;BME280;59568;52.128;5.434;2023-11-21T01:38:13;101286.69;;;5.21;100.00
71716;BME280;59568;52.128;5.434;2023-11-21T01:40:41;101296.81;;;5.23;100.00
71716;BME280;59568;52.128;5.434;2023-11-21T01:43:08;101285.44;;;5.24;100.00
71716;BME280;59568;52.128;5.434;2023-11-21T01:45:35;101285.44;;;5.24;100.00
71716;BME280;59568;52.128;5.434;2023-11-21T01:48:03;101282.63;;;5.25;100.00
71716;BME280;59568;52.128;5.434;2023-11-21T01:50:30;101294.31;;;5.28;100.00
71716;BME280;59568;52.128;5.434;2023-11-21T01:52:58;101299.25;;;5.29;100.00
71716;BME280;59568;52.128;5.434;2023-11-21T01:55:25;101304.19;;;5.31;100.00
71716;BME280;59568;52.128;5.434;2023-11-21T01:57:55;101301.13;;;5.34;100.00
71716;BME280;59568;52.128;5.434;2023-11-21T02:00:23;101297.50;;;5.35;100.00
71716;BME280;59568;52.128;5.434;2023-11-21T02:02:51;101304.03;;;5.37;100.00
71716;BME280;59568;52.128;5.434;2023-11-21T02:05:19;101303.78;;;5.39;100.00
71716;BME280;59568;52.128;5.434;2023-11-21T02:07:46;101302.22;;;5.38;100.00
71716;BME280;59568;52.128;5.434;2023-11-21T02:10:15;101313.38;;;5.38;100.00
71716;BME280;59568;52.128;5.434;2023-11-21T02:12:44;101321.69;;;5.40;100.00
71716;BME280;59568;52.128;5.434;2023-11-21T02:15:14;101327.19;;;5.44;100.00
71716;BME280;59568;52.128;5.434;2023-11-21T02:17:47;101335.00;;;5.49;100.00
71716;BME280;59568;52.128;5.434;2023-11-21T02:20:20;101334.09;;;5.55;100.00
71716;BME280;59568;52.128;5.434;2023-11-21T02:22:56;101337.75;;;5.59;100.00
71716;BME280;59568;52.128;5.434;2023-11-21T02:25:29;101337.81;;;5.65;100.00
71716;BME280;59568;52.128;5.434;2023-11-21T02:27:58;101336.31;;;5.69;100.00
71716;BME280;59568;52.128;5.434;2023-11-21T02:30:26;101337.63;;;5.71;100.00
71716;BME280;59568;52.128;5.434;2023-11-21T02:32:54;101342.34;;;5.74;100.00
71716;BME280;59568;52.128;5.434;2023-11-21T02:35:24;101339.03;;;5.79;100.00
71716;BME280;59568;52.128;5.434;2023-11-21T02:37:53;101342.16;;;5.81;100.00
71716;BME280;59568;52.128;5.434;2023-11-21T02:40:20;101341.94;;;5.83;100.00
71716;BME280;59568;52.128;5.434;2023-11-21T02:42:48;101348.44;;;5.85;100.00
71716;BME280;59568;52.128;5.434;2023-11-21T02:45:15;101346.16;;;5.89;100.00
71716;BME280;59568;52.128;5.434;2023-11-21T02:47:45;101346.25;;;5.94;100.00
71716;BME280;59568;52.128;5.434;2023-11-21T02:50:12;101352.19;;;5.94;100.00
71716;BME280;59568;52.128;5.434;2023-11-21T02:52:39;101346.31;;;5.99;100.00
71716;BME280;59568;52.128;5.434;2023-11-21T02:55:07;101351.28;;;6.00;100.00
71716;BME280;59568;52.128;5.434;2023-11-21T02:57:34;101341.66;;;6.01;100.00
71716;BME280;59568;52.128;5.434;2023-11-21T03:00:01;101337.78;;;6.04;100.00
71716;BME280;59568;52.128;5.434;2023-11-21T03:02:28;101338.38;;;6.06;100.00
71716;BME280;59568;52.128;5.434;2023-11-21T03:04:55;101343.56;;;6.06;100.00
71716;BME280;59568;52.128;5.434;2023-11-21T03:07:23;101345.88;;;6.07;100.00
71716;BME280;59568;52.128;5.434;2023-11-21T03:09:50;101346.19;;;6.11;100.00
71716;BME280;59568;52.128;5.434;2023-11-21T03:12:17;101343.13;;;6.14;100.00
71716;BME280;59568;52.128;5.434;2023-11-21T03:14:43;101343.66;;;6.16;100.00
71716;BME280;59568;52.128;5.434;2023-11-21T03:17:10;101336.97;;;6.20;100.00
71716;BME280;59568;52.128;5.434;2023-11-21T03:19:38;101346.31;;;6.21;100.00
71716;BME280;59568;52.128;5.434;2023-11-21T03:22:05;101343.47;;;6.23;100.00
71716;BME280;59568;52.128;5.434;2023-11-21T03:24:32;101349.75;;;6.27;100.00
71716;BME280;59568;52.128;5.434;2023-11-21T03:26:58;101352.88;;;6.29;100.00
71716;BME280;59568;52.128;5.434;2023-11-21T03:29:26;101351.59;;;6.31;100.00
71716;BME280;59568;52.128;5.434;2023-11-21T03:31:52;101348.00;;;6.32;100.00
71716;BME280;59568;52.128;5.434;2023-11-21T03:34:27;101339.66;;;6.30;100.00
71716;BME280;59568;52.128;5.434;2023-11-21T03:36:54;101350.59;;;6.32;100.00
71716;BME280;59568;52.128;5.434;2023-11-21T03:39:22;101348.78;;;6.33;100.00
71716;BME280;59568;52.128;5.434;2023-11-21T03:41:49;101357.09;;;6.35;100.00
71716;BME280;59568;52.128;5.434;2023-11-21T03:44:16;101357.88;;;6.35;100.00
71716;BME280;59568;52.128;5.434;2023-11-21T03:46:44;101352.22;;;6.38;100.00
71716;BME280;59568;52.128;5.434;2023-11-21T03:49:11;101357.16;;;6.40;100.00
71716;BME280;59568;52.128;5.434;2023-11-21T03:51:38;101367.28;;;6.42;100.00
71716;BME280;59568;52.128;5.434;2023-11-21T03:54:05;101365.75;;;6.46;100.00
71716;BME280;59568;52.128;5.434;2023-11-21T03:56:32;101369.94;;;6.47;100.00
71716;BME280;59568;52.128;5.434;2023-11-21T03:58:59;101376.22;;;6.51;100.00
71716;BME280;59568;52.128;5.434;2023-11-21T04:01:25;101378.56;;;6.52;100.00
71716;BME280;59568;52.128;5.434;2023-11-21T04:03:52;101378.31;;;6.54;100.00
71716;BME280;59568;52.128;5.434;2023-11-21T04:06:19;101382.47;;;6.55;100.00
71716;BME280;59568;52.128;5.434;2023-11-21T04:08:46;101390.81;;;6.57;100.00
71716;BME280;59568;52.128;5.434;2023-11-21T04:11:13;101381.22;;;6.57;100.00
71716;BME280;59568;52.128;5.434;2023-11-21T04:13:40;101388.75;;;6.59;100.00
71716;BME280;59568;52.128;5.434;2023-11-21T04:16:09;101392.94;;;6.60;100.00
71716;BME280;59568;52.128;5.434;2023-11-21T04:18:36;101398.66;;;6.62;100.00
71716;BME280;59568;52.128;5.434;2023-11-21T04:21:07;101402.81;;;6.63;100.00
71716;BME280;59568;52.128;5.434;2023-11-21T04:23:35;101404.13;;;6.66;100.00
71716;BME280;59568;52.128;5.434;2023-11-21T04:26:02;101406.50;;;6.67;100.00
71716;BME280;59568;52.128;5.434;2023-11-21T04:28:29;101402.88;;;6.68;100.00
71716;BME280;59568;52.128;5.434;2023-11-21T04:30:56;101416.41;;;6.70;100.00
71716;BME280;59568;52.128;5.434;2023-11-21T04:33:23;101413.53;;;6.72;100.00
71716;BME280;59568;52.128;5.434;2023-11-21T04:35:50;101414.88;;;6.74;100.00
71716;BME280;59568;52.128;5.434;2023-11-21T04:38:17;101416.44;;;6.75;100.00
71716;BME280;59568;52.128;5.434;2023-11-21T04:40:44;101422.94;;;6.78;100.00
71716;BME280;59568;52.128;5.434;2023-11-21T04:43:11;101429.72;;;6.79;100.00
71716;BME280;59568;52.128;5.434;2023-11-21T04:45:38;101432.31;;;6.79;100.00
71716;BME280;59568;52.128;5.434;2023-11-21T04:48:05;101433.66;;;6.82;100.00
71716;BME280;59568;52.128;5.434;2023-11-21T04:50:33;101437.59;;;6.84;100.00
71716;BME280;59568;52.128;5.434;2023-11-21T04:53:00;101438.38;;;6.85;100.00
71716;BME280;59568;52.128;5.434;2023-11-21T04:55:27;101437.84;;;6.88;100.00
71716;BME280;59568;52.128;5.434;2023-11-21T04:57:54;101435.03;;;6.89;100.00
71716;BME280;59568;52.128;5.434;2023-11-21T05:00:21;101431.16;;;6.92;100.00
71716;BME280;59568;52.128;5.434;2023-11-21T05:02:48;101432.72;;;6.93;100.00
71716;BME280;59568;52.128;5.434;2023-11-21T05:05:16;101436.34;;;6.92;100.00
71716;BME280;59568;52.128;5.434;2023-11-21T05:07:44;101442.88;;;6.94;100.00
71716;BME280;59568;52.128;5.434;2023-11-21T05:10:11;101450.41;;;6.96;100.00
71716;BME280;59568;52.128;5.434;2023-11-21T05:12:40;101448.63;;;6.96;100.00
71716;BME280;59568;52.128;5.434;2023-11-21T05:15:08;101447.88;;;7.01;100.00
71716;BME280;59568;52.128;5.434;2023-11-21T05:17:39;101465.81;;;7.03;100.00
71716;BME280;59568;52.128;5.434;2023-11-21T05:20:11;101457.22;;;7.02;100.00
71716;BME280;59568;52.128;5.434;2023-11-21T05:22:40;101464.78;;;7.04;100.00
71716;BME280;59568;52.128;5.434;2023-11-21T05:25:09;101453.59;;;7.03;100.00
71716;BME280;59568;52.128;5.434;2023-11-21T05:27:38;101458.56;;;7.05;100.00
71716;BME280;59568;52.128;5.434;2023-11-21T05:30:05;101463.50;;;7.06;100.00
71716;BME280;59568;52.128;5.434;2023-11-21T05:32:32;101467.69;;;7.07;100.00
71716;BME280;59568;52.128;5.434;2023-11-21T05:34:59;101469.22;;;7.08;100.00
71716;BME280;59568;52.128;5.434;2023-11-21T05:37:27;101469.78;;;7.10;100.00
71716;BME280;59568;52.128;5.434;2023-11-21T05:39:54;101473.94;;;7.11;100.00
71716;BME280;59568;52.128;5.434;2023-11-21T05:42:24;101479.69;;;7.13;100.00
71716;BME280;59568;52.128;5.434;2023-11-21T05:44:51;101483.88;;;7.14;100.00
71716;BME280;59568;52.128;5.434;2023-11-21T05:47:18;101481.81;;;7.16;100.00
71716;BME280;59568;52.128;5.434;2023-11-21T05:49:45;101486.50;;;7.19;100.00
71716;BME280;59568;52.128;5.434;2023-11-21T05:52:17;101483.66;;;7.21;100.00
71716;BME280;59568;52.128;5.434;2023-11-21T05:54:44;101489.41;;;7.23;100.00
71716;BME280;59568;52.128;5.434;2023-11-21T05:57:11;101492.78;;;7.24;100.00
71716;BME280;59568;52.128;5.434;2023-11-21T05:59:38;101496.94;;;7.25;100.00
71716;BME280;59568;52.128;5.434;2023-11-21T06:02:05;101506.31;;;7.26;100.00
71716;BME280;59568;52.128;5.434;2023-11-21T06:04:31;101503.47;;;7.27;100.00
71716;BME280;59568;52.128;5.434;2023-11-21T06:06:58;101504.25;;;7.28;100.00
71716;BME280;59568;52.128;5.434;2023-11-21T06:09:27;101511.03;;;7.29;100.00
71716;BME280;59568;52.128;5.434;2023-11-21T06:11:54;101520.16;;;7.31;100.00
71716;BME280;59568;52.128;5.434;2023-11-21T06:14:21;101524.28;;;7.32;100.00
71716;BME280;59568;52.128;5.434;2023-11-21T06:16:48;101525.66;;;7.35;100.00
71716;BME280;59568;52.128;5.434;2023-11-21T06:19:17;101519.41;;;7.36;100.00
71716;BME280;59568;52.128;5.434;2023-11-21T06:21:46;101528.78;;;7.37;100.00
71716;BME280;59568;52.128;5.434;2023-11-21T06:24:13;101526.72;;;7.39;100.00
71716;BME280;59568;52.128;5.434;2023-11-21T06:26:42;101526.47;;;7.40;100.00
71716;BME280;59568;52.128;5.434;2023-11-21T06:29:10;101533.00;;;7.43;100.00
71716;BME280;59568;52.128;5.434;2023-11-21T06:31:37;101537.16;;;7.44;100.00
71716;BME280;59568;52.128;5.434;2023-11-21T06:34:04;101536.44;;;7.49;100.00
71716;BME280;59568;52.128;5.434;2023-11-21T06:36:31;101537.97;;;7.50;100.00
71716;BME280;59568;52.128;5.434;2023-11-21T06:38:58;101542.94;;;7.51;100.00
71716;BME280;59568;52.128;5.434;2023-11-21T06:41:25;101538.28;;;7.53;100.00
71716;BME280;59568;52.128;5.434;2023-11-21T06:43:52;101548.19;;;7.56;100.00
71716;BME280;59568;52.128;5.434;2023-11-21T06:46:19;101542.72;;;7.58;100.00
71716;BME280;59568;52.128;5.434;2023-11-21T06:48:47;101550.84;;;7.62;100.00
71716;BME280;59568;52.128;5.434;2023-11-21T06:51:15;101557.34;;;7.64;100.00
71716;BME280;59568;52.128;5.434;2023-11-21T06:53:42;101554.75;;;7.64;100.00
71716;BME280;59568;52.128;5.434;2023-11-21T06:56:18;101552.69;;;7.66;100.00
71716;BME280;59568;52.128;5.434;2023-11-21T06:58:46;101560.78;;;7.70;100.00
71716;BME280;59568;52.128;5.434;2023-11-21T07:01:13;101558.97;;;7.70;100.00
71716;BME280;59568;52.128;5.434;2023-11-21T07:03:41;101565.50;;;7.73;100.00
71716;BME280;59568;52.128;5.434;2023-11-21T07:06:08;101575.91;;;7.73;100.00
71716;BME280;59568;52.128;5.434;2023-11-21T07:08:35;101575.63;;;7.74;100.00
71716;BME280;59568;52.128;5.434;2023-11-21T07:11:04;101583.19;;;7.76;100.00
71716;BME280;59568;52.128;5.434;2023-11-21T07:13:31;101577.75;;;7.77;100.00
71716;BME280;59568;52.128;5.434;2023-11-21T07:15:59;101591.06;;;7.81;100.00
71716;BME280;59568;52.128;5.434;2023-11-21T07:18:26;101594.22;;;7.83;100.00
71716;BME280;59568;52.128;5.434;2023-11-21T07:20:54;101603.09;;;7.87;100.00
71716;BME280;59568;52.128;5.434;2023-11-21T07:23:21;101610.13;;;7.92;100.00
71716;BME280;59568;52.128;5.434;2023-11-21T07:25:49;101601.03;;;7.94;100.00
71716;BME280;59568;52.128;5.434;2023-11-21T07:28:16;101607.31;;;7.98;100.00
71716;BME280;59568;52.128;5.434;2023-11-21T07:30:43;101603.69;;;7.99;100.00
71716;BME280;59568;52.128;5.434;2023-11-21T07:33:10;101618.03;;;8.02;100.00
71716;BME280;59568;52.128;5.434;2023-11-21T07:35:37;101608.69;;;8.06;100.00
71716;BME280;59568;52.128;5.434;2023-11-21T07:38:04;101608.97;;;8.10;100.00
71716;BME280;59568;52.128;5.434;2023-11-21T07:40:31;101602.25;;;8.14;100.00
71716;BME280;59568;52.128;5.434;2023-11-21T07:42:59;101603.31;;;8.18;100.00
71716;BME280;59568;52.128;5.434;2023-11-21T07:45:26;101617.41;;;8.22;100.00
71716;BME280;59568;52.128;5.434;2023-11-21T07:47:56;101617.41;;;8.22;100.00
71716;BME280;59568;52.128;5.434;2023-11-21T07:50:23;101622.13;;;8.25;100.00
71716;BME280;59568;52.128;5.434;2023-11-21T07:52:50;101620.81;;;8.28;100.00
71716;BME280;59568;52.128;5.434;2023-11-21T07:55:18;101631.25;;;8.33;100.00
71716;BME280;59568;52.128;5.434;2023-11-21T07:57:44;101634.16;;;8.36;100.00
71716;BME280;59568;52.128;5.434;2023-11-21T08:00:12;101633.47;;;8.41;100.00
71716;BME280;59568;52.128;5.434;2023-11-21T08:02:40;101648.31;;;8.46;100.00
71716;BME280;59568;52.128;5.434;2023-11-21T08:05:12;101654.34;;;8.51;100.00
71716;BME280;59568;52.128;5.434;2023-11-21T08:07:51;101656.72;;;8.58;100.00
71716;BME280;59568;52.128;5.434;2023-11-21T08:10:17;101656.75;;;8.63;100.00
71716;BME280;59568;52.128;5.434;2023-11-21T08:12:44;101667.75;;;8.70;100.00
71716;BME280;59568;52.128;5.434;2023-11-21T08:15:11;101668.56;;;8.76;100.00
71716;BME280;59568;52.128;5.434;2023-11-21T08:17:39;101674.06;;;8.79;100.00
71716;BME280;59568;52.128;5.434;2023-11-21T08:20:06;101681.38;;;8.83;100.00
71716;BME280;59568;52.128;5.434;2023-11-21T08:22:35;101682.97;;;8.89;100.00
71716;BME280;59568;52.128;5.434;2023-11-21T08:25:03;101695.50;;;8.92;100.00
71716;BME280;59568;52.128;5.434;2023-11-21T08:27:31;101692.38;;;8.95;100.00
71716;BME280;59568;52.128;5.434;2023-11-21T08:29:58;101698.13;;;8.97;100.00
71716;BME280;59568;52.128;5.434;2023-11-21T08:32:25;101702.06;;;8.99;100.00
71716;BME280;59568;52.128;5.434;2023-11-21T08:34:52;101712.50;;;8.99;100.00
71716;BME280;59568;52.128;5.434;2023-11-21T08:37:19;101716.66;;;9.00;100.00
71716;BME280;59568;52.128;5.434;2023-11-21T08:39:47;101720.03;;;9.01;100.00
71716;BME280;59568;52.128;5.434;2023-11-21T08:42:19;101728.91;;;9.00;100.00
71716;BME280;59568;52.128;5.434;2023-11-21T08:44:46;101733.06;;;9.01;100.00
71716;BME280;59568;52.128;5.434;2023-11-21T08:47:13;101736.22;;;9.03;100.00
71716;BME280;59568;52.128;5.434;2023-11-21T08:49:41;101743.53;;;9.06;100.00
71716;BME280;59568;52.128;5.434;2023-11-21T08:52:08;101740.41;;;9.09;100.00
71716;BME280;59568;52.128;5.434;2023-11-21T08:54:35;101751.13;;;9.13;100.00
71716;BME280;59568;52.128;5.434;2023-11-21T08:57:03;101747.22;;;9.15;100.00
71716;BME280;59568;52.128;5.434;2023-11-21T08:59:30;101751.41;;;9.16;100.00
71716;BME280;59568;52.128;5.434;2023-11-21T09:01:57;101743.09;;;9.19;100.00
71716;BME280;59568;52.128;5.434;2023-11-21T09:04:24;101741.03;;;9.27;100.00
71716;BME280;59568;52.128;5.434;2023-11-21T09:06:51;101741.06;;;9.37;100.00
71716;BME280;59568;52.128;5.434;2023-11-21T09:09:18;101749.75;;;9.53;100.00
71716;BME280;59568;52.128;5.434;2023-11-21T09:11:46;101770.38;;;9.59;100.00
71716;BME280;59568;52.128;5.434;2023-11-21T09:14:15;101776.66;;;9.58;100.00
71716;BME280;59568;52.128;5.434;2023-11-21T09:16:44;101782.13;;;9.57;100.00
71716;BME280;59568;52.128;5.434;2023-11-21T09:19:12;101783.44;;;9.54;100.00
71716;BME280;59568;52.128;5.434;2023-11-21T09:21:41;101783.38;;;9.49;100.00
71716;BME280;59568;52.128;5.434;2023-11-21T09:24:09;101793.28;;;9.47;100.00
71716;BME280;59568;52.128;5.434;2023-11-21T09:26:36;101782.09;;;9.47;100.00
71716;BME280;59568;52.128;5.434;2023-11-21T09:29:03;101785.75;;;9.46;100.00
71716;BME280;59568;52.128;5.434;2023-11-21T09:31:30;101796.19;;;9.46;100.00
71716;BME280;59568;52.128;5.434;2023-11-21T09:33:57;101799.31;;;9.48;100.00
71716;BME280;59568;52.128;5.434;2023-11-21T09:36:24;101803.72;;;9.47;100.00
71716;BME280;59568;52.128;5.434;2023-11-21T09:38:54;101810.53;;;9.48;100.00
71716;BME280;59568;52.128;5.434;2023-11-21T09:41:34;101821.75;;;9.49;100.00
71716;BME280;59568;52.128;5.434;2023-11-21T09:44:08;101833.47;;;9.46;100.00
71716;BME280;59568;52.128;5.434;2023-11-21T09:46:40;101831.38;;;9.43;100.00
71716;BME280;59568;52.128;5.434;2023-11-21T09:49:13;101833.69;;;9.39;100.00
71716;BME280;59568;52.128;5.434;2023-11-21T09:51:43;101843.06;;;9.35;100.00
71716;BME280;59568;52.128;5.434;2023-11-21T09:54:13;101840.44;;;9.30;100.00
71716;BME280;59568;52.128;5.434;2023-11-21T09:56:42;101842.50;;;9.28;100.00
71716;BME280;59568;52.128;5.434;2023-11-21T09:59:13;101844.06;;;9.29;100.00
71716;BME280;59568;52.128;5.434;2023-11-21T10:01:42;101851.41;;;9.32;100.00
71716;BME280;59568;52.128;5.434;2023-11-21T10:04:09;101847.50;;;9.35;100.00
71716;BME280;59568;52.128;5.434;2023-11-21T10:06:40;101855.84;;;9.32;100.00
71716;BME280;59568;52.128;5.434;2023-11-21T10:09:13;101862.06;;;9.31;100.00
71716;BME280;59568;52.128;5.434;2023-11-21T10:11:42;101856.84;;;9.26;100.00
71716;BME280;59568;52.128;5.434;2023-11-21T10:14:11;101860.72;;;9.23;100.00
71716;BME280;59568;52.128;5.434;2023-11-21T10:16:43;101873.50;;;9.25;100.00
71716;BME280;59568;52.128;5.434;2023-11-21T10:19:12;101871.41;;;9.22;100.00
71716;BME280;59568;52.128;5.434;2023-11-21T10:21:43;101878.72;;;9.25;100.00
71716;BME280;59568;52.128;5.434;2023-11-21T10:24:11;101884.22;;;9.28;100.00
71716;BME280;59568;52.128;5.434;2023-11-21T10:26:39;101894.44;;;9.35;100.00
71716;BME280;59568;52.128;5.434;2023-11-21T10:29:19;101890.59;;;9.43;100.00
71716;BME280;59568;52.128;5.434;2023-11-21T10:31:50;101892.91;;;9.39;100.00
71716;BME280;59568;52.128;5.434;2023-11-21T10:34:19;101897.09;;;9.40;100.00
71716;BME280;59568;52.128;5.434;2023-11-21T10:36:47;101895.50;;;9.39;100.00
71716;BME280;59568;52.128;5.434;2023-11-21T10:39:16;101901.25;;;9.36;100.00
71716;BME280;59568;52.128;5.434;2023-11-21T10:41:47;101915.28;;;9.30;100.00
71716;BME280;59568;52.128;5.434;2023-11-21T10:44:16;101926.19;;;9.22;100.00
71716;BME280;59568;52.128;5.434;2023-11-21T10:46:52;101924.06;;;9.18;100.00
71716;BME280;59568;52.128;5.434;2023-11-21T10:49:25;101934.97;;;9.15;100.00
71716;BME280;59568;52.128;5.434;2023-11-21T10:51:55;101939.63;;;9.08;100.00
71716;BME280;59568;52.128;5.434;2023-11-21T10:54:25;101946.13;;;9.06;100.00
71716;BME280;59568;52.128;5.434;2023-11-21T10:57:00;101950.81;;;9.04;100.00
71716;BME280;59568;52.128;5.434;2023-11-21T10:59:31;101958.34;;;9.05;100.00
71716;BME280;59568;52.128;5.434;2023-11-21T11:02:01;101952.13;;;9.06;100.00
71716;BME280;59568;52.128;5.434;2023-11-21T11:04:31;101955.50;;;9.07;100.00
71716;BME280;59568;52.128;5.434;2023-11-21T11:07:02;101957.88;;;9.08;100.00
71716;BME280;59568;52.128;5.434;2023-11-21T11:09:32;101954.50;;;9.08;100.00
71716;BME280;59568;52.128;5.434;2023-11-21T11:12:03;101958.41;;;9.10;100.00
71716;BME280;59568;52.128;5.434;2023-11-21T11:14:32;101952.16;;;9.11;100.00
71716;BME280;59568;52.128;5.434;2023-11-21T11:17:00;101949.06;;;9.14;100.00
71716;BME280;59568;52.128;5.434;2023-11-21T11:19:29;101947.47;;;9.13;100.00
71716;BME280;59568;52.128;5.434;2023-11-21T11:25:07;101960.25;;;9.10;100.00
71716;BME280;59568;52.128;5.434;2023-11-21T11:27:50;101966.72;;;9.07;100.00
71716;BME280;59568;52.128;5.434;2023-11-21T11:30:49;101960.41;;;9.03;100.00
71716;BME280;59568;52.128;5.434;2023-11-21T11:36:13;101967.25;;;9.09;100.00
71716;BME280;59568;52.128;5.434;2023-11-21T11:38:46;101966.78;;;9.12;100.00
71716;BME280;59568;52.128;5.434;2023-11-21T11:41:31;101969.91;;;9.14;100.00
71716;BME280;59568;52.128;5.434;2023-11-21T11:44:00;101965.25;;;9.16;100.00
71716;BME280;59568;52.128;5.434;2023-11-21T11:46:44;101973.06;;;9.16;100.00
71716;BME280;59568;52.128;5.434;2023-11-21T11:49:27;101977.22;;;9.17;100.00
71716;BME280;59568;52.128;5.434;2023-11-21T11:52:35;101980.66;;;9.18;100.00
71716;BME280;59568;52.128;5.434;2023-11-21T11:55:03;101989.25;;;9.18;100.00
71716;BME280;59568;52.128;5.434;2023-11-21T11:57:34;101997.63;;;9.20;100.00
71716;BME280;59568;52.128;5.434;2023-11-21T12:02:51;102010.72;;;9.26;100.00
71716;BME280;59568;52.128;5.434;2023-11-21T12:05:20;101997.91;;;9.24;100.00
71716;BME280;59568;52.128;5.434;2023-11-21T12:10:17;102008.06;;;9.20;100.00
71716;BME280;59568;52.128;5.434;2023-11-21T12:12:47;102011.44;;;9.21;100.00
71716;BME280;59568;52.128;5.434;2023-11-21T12:15:14;102015.63;;;9.22;100.00
71716;BME280;59568;52.128;5.434;2023-11-21T12:17:42;102018.25;;;9.22;100.00
71716;BME280;59568;52.128;5.434;2023-11-21T12:20:12;102018.00;;;9.24;100.00
71716;BME280;59568;52.128;5.434;2023-11-21T12:22:43;102027.34;;;9.19;100.00
71716;BME280;59568;52.128;5.434;2023-11-21T12:25:10;102015.88;;;9.20;100.00
71716;BME280;59568;52.128;5.434;2023-11-21T12:27:43;102025.03;;;9.23;100.00
71716;BME280;59568;52.128;5.434;2023-11-21T12:30:12;102027.38;;;9.25;100.00
71716;BME280;59568;52.128;5.434;2023-11-21T12:32:40;102026.38;;;9.26;100.00
71716;BME280;59568;52.128;5.434;2023-11-21T12:35:10;102027.34;;;9.19;100.00
71716;BME280;59568;52.128;5.434;2023-11-21T12:37:38;102020.25;;;9.15;100.00
71716;BME280;59568;52.128;5.434;2023-11-21T12:40:07;102025.47;;;9.15;100.00
71716;BME280;59568;52.128;5.434;2023-11-21T12:42:39;102023.91;;;9.14;100.00
71716;BME280;59568;52.128;5.434;2023-11-21T12:45:27;102036.13;;;9.13;100.00
71716;BME280;59568;52.128;5.434;2023-11-21T12:50:27;102038.47;;;9.10;100.00
71716;BME280;59568;52.128;5.434;2023-11-21T12:53:06;102039.47;;;9.09;100.00
71716;BME280;59568;52.128;5.434;2023-11-21T12:55:36;102050.16;;;9.07;100.00
71716;BME280;59568;52.128;5.434;2023-11-21T12:58:07;102051.75;;;9.08;100.00
71716;BME280;59568;52.128;5.434;2023-11-21T13:00:40;102058.53;;;9.09;100.00
71716;BME280;59568;52.128;5.434;2023-11-21T13:03:11;102052.59;;;9.14;100.00
71716;BME280;59568;52.128;5.434;2023-11-21T13:05:40;102060.69;;;9.17;100.00
71716;BME280;59568;52.128;5.434;2023-11-21T13:08:19;102063.13;;;9.24;100.00
71716;BME280;59568;52.128;5.434;2023-11-21T13:10:53;102059.78;;;9.29;100.00
71716;BME280;59568;52.128;5.434;2023-11-21T13:13:23;102066.06;;;9.33;100.00